Time,TemperatureF,DewpointF,PressureIn,WindDirection,WindDirectionDegrees,WindSpeedMPH,WindSpeedGustMPH,Humidity,HourlyPrecipIn,Conditions,Clouds,dailyrainin,SoftwareType,DateUTC
2013-07-25 01:10:00,83.5,55.2,28.44,NW,319,1.0,3.0,38,0.00,01:10,,0.00,WeatherDisplay:WD co,2013-07-24 22:10:00,
2013-07-25 02:20:00,81.5,54.2,28.45,NNW,338,0.0,2.0,39,0.00,02:20,,0.00,WeatherDisplay:WD co,2013-07-24 23:20:00,
2013-07-25 02:30:00,81.9,54.5,28.45,NNW,333,1.0,2.0,39,0.00,02:30,,0.00,WeatherDisplay:WD co,2013-07-24 23:30:00,
2013-07-25 02:55:00,82.2,54.8,28.45,NW,319,1.0,2.0,39,0.00,02:55,,0.00,WeatherDisplay:WD co,2013-07-24 23:55:00,
2013-07-25 03:15:00,82.0,54.6,28.45,NW,315,1.0,3.0,39,0.00,03:15,,0.00,WeatherDisplay:WD co,2013-07-25 00:15:00,
2013-07-25 03:25:00,82.0,54.6,28.45,NW,315,1.0,2.0,39,0.00,03:25,,0.00,WeatherDisplay:WD co,2013-07-25 00:25:00,
2013-07-25 04:25:00,81.7,55.7,28.45,NNW,339,1.0,4.0,41,0.00,04:25,,0.00,WeatherDisplay:WD co,2013-07-25 01:25:00,
2013-07-25 04:45:00,81.9,55.2,28.45,NW,318,1.0,4.0,40,0.00,04:45,,0.00,WeatherDisplay:WD co,2013-07-25 01:45:00,
2013-07-25 07:55:00,83.7,56.8,28.47,NW,304,1.0,4.0,40,0.00,07:55,,0.00,WeatherDisplay:WD co,2013-07-25 04:55:00,
2013-07-25 08:30:00,86.5,57.9,28.48,WNW,295,5.0,7.0,38,0.00,08:30,,0.00,WeatherDisplay:WD co,2013-07-25 05:30:00,
2013-07-25 08:40:00,87.3,58.6,28.48,NW,305,3.0,6.0,38,0.00,08:40,,0.00,WeatherDisplay:WD co,2013-07-25 05:40:00,
2013-07-25 09:25:00,90.0,58.6,28.47,WNW,292,5.0,8.0,35,0.00,09:25,,0.00,WeatherDisplay:WD co,2013-07-25 06:25:00,
2013-07-25 13:50:00,94.3,62.4,28.44,SSW,201,0.0,8.0,35,0.00,13:50,,0.00,WeatherDisplay:WD co,2013-07-25 10:50:00,
2013-07-25 13:55:00,93.9,61.3,28.44,SW,229,3.0,8.0,34,0.00,13:55,,0.00,WeatherDisplay:WD co,2013-07-25 10:55:00,
2013-07-25 14:20:00,93.2,60.7,28.43,SSW,192,3.0,8.0,34,0.00,14:20,,0.00,WeatherDisplay:WD co,2013-07-25 11:20:00,
2013-07-25 16:40:00,96.4,62.6,28.40,SE,137,3.0,11.0,33,0.00,16:40,,0.00,WeatherDisplay:WD co,2013-07-25 13:40:00,
2013-07-25 18:35:00,94.8,62.1,28.38,NE,35,6.0,15.0,34,0.00,18:35,,0.00,WeatherDisplay:WD co,2013-07-25 15:35:00,
2013-07-25 19:20:00,91.6,69.7,28.39,SSE,151,0.0,9.0,49,0.00,19:20,,0.00,WeatherDisplay:WD co,2013-07-25 16:20:00,
2013-07-25 19:25:00,89.6,70.8,28.39,South,189,3.0,9.0,54,0.00,19:25,,0.00,WeatherDisplay:WD co,2013-07-25 16:25:00,
2013-07-25 21:45:00,82.9,66.6,28.41,SW,215,0.0,0.0,58,0.00,21:45,,0.00,WeatherDisplay:WD co,2013-07-25 18:45:00,
2013-07-25 22:20:00,83.1,66.3,28.42,West,278,0.0,3.0,57,0.00,22:20,,0.00,WeatherDisplay:WD co,2013-07-25 19:20:00,
2013-07-25 22:30:00,83.1,66.3,28.42,WNW,283,0.0,1.0,57,0.00,22:30,,0.00,WeatherDisplay:WD co,2013-07-25 19:30:00,